Time;durP1;ratioP1;P1;durP2;ratioP2;P2;SDS_P1;SDS_P2;PMS_P1;PMS_P2;Temp;Humidity;BMP_temperature;BMP_pressure;BME280_temperature;BME280_humidity;BME280_pressure;Samples;Min_cycle;Max_cycle;Signal;HPM_P1;HPM_P2
2022/06/28 05:02:15;;;;;;;9.57;2.15;;;;;;;25.43;48.75;100610.66;5088660;27;20444;-78
2022/06/28 05:04:44;;;;;;;8.15;2.83;;;;;;;25.71;47.43;100606.63;5085968;28;20827;-78
2022/06/28 05:07:17;;;;;;;7.85;2.17;;;;;;;26.02;46.23;100601.72;5101351;28;20052;-79
2022/06/28 05:09:45;;;;;;;6.78;2.30;;;;;;;26.19;45.60;100599.44;5083798;28;20044;-79
2022/06/28 05:12:13;;;;;;;5.72;2.53;;;;;;;26.10;45.50;100599.78;5087375;28;20063;-79
2022/06/28 05:14:45;;;;;;;7.70;2.47;;;;;;;26.23;45.49;100611.50;5068635;28;20072;-79
2022/06/28 05:17:15;;;;;;;4.20;2.10;;;;;;;26.32;45.24;100616.81;5087028;28;20483;-79
2022/06/28 05:19:42;;;;;;;4.22;1.98;;;;;;;26.45;45.09;100612.53;5069525;28;20063;-78
2022/06/28 05:22:11;;;;;;;9.82;2.53;;;;;;;26.64;44.71;100608.63;5089909;28;20044;-79
2022/06/28 05:25:09;;;;;;;5.35;2.35;;;;;;;26.79;43.71;100606.72;5088154;28;20044;-78
2022/06/28 05:27:37;;;;;;;8.50;2.40;;;;;;;26.81;43.61;100603.53;5104371;28;20371;-78
2022/06/28 05:30:05;;;;;;;11.48;3.10;;;;;;;26.88;43.77;100602.78;5097911;28;20063;-79
2022/06/28 05:32:33;;;;;;;4.32;2.08;;;;;;;26.93;43.35;100606.03;5086968;28;20040;-79
2022/06/28 05:35:01;;;;;;;7.05;2.58;;;;;;;26.98;42.44;100596.44;5088546;28;20044;-78
2022/06/28 05:37:29;;;;;;;4.68;1.95;;;;;;;27.10;42.92;100593.28;5092846;28;20032;-78
2022/06/28 05:39:57;;;;;;;8.95;1.73;;;;;;;27.17;42.60;100612.16;5090823;28;20036;-78
2022/06/28 05:42:25;;;;;;;10.02;2.40;;;;;;;27.20;41.81;100616.19;5089491;28;20051;-78
2022/06/28 05:44:53;;;;;;;11.27;2.08;;;;;;;27.37;41.75;100609.06;5094820;28;20049;-79
2022/06/28 16:16:35;;;;;;;10.27;1.88;;;;;;;31.38;36.47;100349.66;5055197;28;20375;-76
2022/06/28 18:21:31;;;;;;;5.13;3.17;;;;;;;30.15;39.08;100255.50;5060466;28;20418;-81
2022/06/28 18:23:59;;;;;;;19.90;3.53;;;;;;;30.16;40.12;100246.59;5048149;28;20053;-81
2022/06/28 18:26:27;;;;;;;21.88;3.58;;;;;;;30.09;46.98;100237.41;5047947;28;20641;-82
2022/06/28 18:28:55;;;;;;;18.67;3.95;;;;;;;29.86;47.81;100233.28;5047003;28;20041;-81
2022/06/28 18:31:23;;;;;;;11.55;4.38;;;;;;;29.65;50.29;100232.31;5049300;28;20056;-81
2022/06/28 18:33:51;;;;;;;9.75;3.00;;;;;;;29.48;49.90;100234.13;5043738;28;20049;-81
2022/06/28 18:36:19;;;;;;;7.82;3.10;;;;;;;29.46;46.45;100242.16;5048280;28;20041;-81
2022/06/28 18:38:47;;;;;;;10.48;3.42;;;;;;;29.33;47.92;100244.72;5047819;28;20041;-81
2022/06/28 18:41:15;;;;;;;12.60;4.78;;;;;;;29.35;50.88;100247.91;5047346;28;20053;-81
2022/06/28 18:43:43;;;;;;;13.07;3.20;;;;;;;29.23;50.68;100263.34;5047076;28;20052;-81
2022/06/28 18:46:11;;;;;;;6.72;2.33;;;;;;;29.12;50.16;100254.19;5047806;28;20053;-81
2022/06/28 18:48:39;;;;;;;4.20;2.38;;;;;;;28.99;53.58;100253.91;5044431;28;20060;-81
2022/06/28 18:51:07;;;;;;;6.63;2.33;;;;;;;29.00;52.78;100263.94;5040005;28;20049;-81
2022/06/28 18:53:35;;;;;;;4.65;2.20;;;;;;;29.10;53.98;100297.66;5044902;28;20042;-78
2022/06/28 18:56:04;;;;;;;7.80;2.00;;;;;;;29.12;52.31;100327.44;5047074;28;20376;-78
2022/06/28 18:58:32;;;;;;;6.60;2.40;;;;;;;29.12;51.85;100352.78;5046225;28;20053;-78
2022/06/28 19:01:01;;;;;;;6.63;2.38;;;;;;;29.01;55.25;100356.47;5036428;28;20072;-78
2022/06/28 19:03:29;;;;;;;6.22;2.88;;;;;;;28.80;56.70;100354.56;5025267;28;20052;-78
2022/06/28 19:05:58;;;;;;;7.68;2.60;;;;;;;28.72;60.18;100386.81;5042114;28;20077;-78
2022/06/28 19:08:26;;;;;;;9.95;2.33;;;;;;;28.52;60.20;100390.09;5046038;28;20053;-76
2022/06/28 19:10:54;;;;;;;5.47;2.60;;;;;;;28.40;59.68;100403.41;5045191;28;20060;-77
2022/06/28 19:13:22;;;;;;;8.68;2.47;;;;;;;28.34;60.82;100399.44;5043978;28;20042;-78
2022/06/28 19:15:50;;;;;;;5.60;2.25;;;;;;;28.17;61.68;100393.44;5046426;28;20400;-77
2022/06/28 19:18:18;;;;;;;7.18;2.58;;;;;;;28.02;63.61;100375.00;5044380;28;20045;-79
2022/06/28 19:20:47;;;;;;;10.95;2.92;;;;;;;27.92;64.31;100381.44;5042047;28;20037;-78
2022/06/28 19:23:16;;;;;;;6.88;2.42;;;;;;;27.82;65.29;100406.38;5024968;28;20049;-82
2022/06/28 19:25:45;;;;;;;8.32;2.58;;;;;;;27.82;65.75;100423.25;5009731;28;20072;-84
2022/06/28 19:28:13;;;;;;;6.55;2.78;;;;;;;27.97;64.83;100414.78;5011988;28;20052;-87
2022/06/28 19:30:41;;;;;;;7.55;2.95;;;;;;;28.08;63.80;100411.94;5043250;28;20407;-81
2022/06/28 19:33:10;;;;;;;5.80;3.00;;;;;;;27.78;65.66;100411.19;5031234;28;20049;-86
2022/06/28 19:35:38;;;;;;;8.13;3.20;;;;;;;27.26;68.70;100406.75;5029814;28;20763;-90
2022/06/28 19:38:07;;;;;;;11.88;2.85;;;;;;;27.10;65.90;100422.00;4998231;28;20053;-87
2022/06/28 19:40:35;;;;;;;4.75;3.10;;;;;;;27.14;68.99;100438.84;5014453;28;20048;-86
2022/06/28 19:43:04;;;;;;;4.57;3.13;;;;;;;27.27;67.26;100425.19;4996745;28;20068;-84
2022/06/28 19:45:39;;;;;;;7.40;3.00;;;;;;;27.30;68.11;100444.06;5030679;28;20060;-84
2022/06/28 19:48:08;;;;;;;5.88;2.97;;;;;;;27.26;69.57;100460.13;4996417;28;20395;-76
2022/06/28 19:50:37;;;;;;;7.22;2.75;;;;;;;27.51;69.14;100476.19;4995539;28;20048;-74
2022/06/28 19:53:05;;;;;;;9.10;2.88;;;;;;;27.37;68.41;100489.03;5012718;28;20042;-75
2022/06/28 19:55:33;;;;;;;8.60;2.72;;;;;;;27.30;68.26;100488.22;4997044;28;20048;-74
2022/06/28 19:58:02;;;;;;;7.78;3.03;;;;;;;27.12;68.86;100476.94;5013804;28;20790;-75
2022/06/28 20:00:32;;;;;;;5.45;3.20;;;;;;;27.02;69.57;100476.50;5000939;28;20053;-74
2022/06/28 20:03:02;;;;;;;14.02;3.05;;;;;;;27.02;69.36;100470.09;5023128;28;20060;-76
2022/06/28 20:05:37;;;;;;;5.70;2.70;;;;;;;26.86;68.17;100470.41;5013409;28;20061;-73
2022/06/28 20:08:07;;;;;;;7.65;2.50;;;;;;;26.95;66.44;100466.06;5012128;28;20045;-73
2022/06/28 20:10:41;;;;;;;5.97;2.25;;;;;;;26.91;63.77;100470.03;5012083;28;20049;-74
2022/06/28 20:13:10;;;;;;;6.38;1.90;;;;;;;26.97;63.20;100462.84;5012613;28;20064;-73
2022/06/28 20:15:38;;;;;;;6.00;2.33;;;;;;;26.90;64.24;100465.59;5011119;28;20045;-77
2022/06/28 20:18:10;;;;;;;12.60;2.30;;;;;;;27.06;63.61;100448.44;4997406;28;20046;-77
2022/06/28 20:20:39;;;;;;;7.22;2.20;;;;;;;26.96;64.43;100442.41;5012540;28;20053;-75
2022/06/28 20:23:07;;;;;;;5.93;2.42;;;;;;;26.91;65.21;100447.56;5011158;28;20084;-91
2022/06/28 20:25:36;;;;;;;5.45;2.10;;;;;;;26.67;65.96;100458.31;5012882;28;20484;-77
2022/06/28 20:28:04;;;;;;;4.55;2.13;;;;;;;26.63;65.21;100465.91;5031914;28;20480;-94
2022/06/28 20:30:33;;;;;;;3.80;2.17;;;;;;;26.69;68.38;100512.06;5046525;28;20041;-83
2022/06/28 20:33:02;;;;;;;4.18;1.65;;;;;;;26.65;66.09;100540.09;5031448;28;20380;-84
2022/06/28 20:35:30;;;;;;;5.43;2.30;;;;;;;26.61;67.01;100549.69;5030345;28;20487;-76
2022/06/28 20:37:58;;;;;;;6.30;2.35;;;;;;;26.53;66.79;100560.03;5027041;28;20034;-93
2022/06/28 20:40:32;;;;;;;4.38;2.25;;;;;;;26.50;66.69;100572.88;4993753;28;20061;-78
2022/06/28 20:43:08;;;;;;;9.65;2.75;;;;;;;26.26;69.96;100586.34;5021450;28;20045;-75
2022/06/28 20:45:36;;;;;;;5.40;3.00;;;;;;;25.84;70.28;100565.91;5029290;28;20045;-75
2022/06/28 20:48:08;;;;;;;4.00;2.45;;;;;;;25.58;74.04;100592.88;5030411;28;20087;-73
2022/06/28 20:50:36;;;;;;;7.13;2.58;;;;;;;25.19;74.66;100608.00;5027828;28;20049;-77
2022/06/28 20:53:04;;;;;;;3.65;2.35;;;;;;;25.11;74.52;100611.88;5030846;28;20043;-73
2022/06/28 20:55:33;;;;;;;3.65;2.63;;;;;;;24.73;75.48;100611.72;5027344;28;20052;-71
2022/06/28 20:58:01;;;;;;;3.63;2.05;;;;;;;24.49;76.96;100579.41;5029382;28;20327;-72
2022/06/28 21:00:29;;;;;;;10.52;2.25;;;;;;;24.46;77.72;100580.94;5029168;28;20041;-69
2022/06/28 21:02:57;;;;;;;11.32;3.17;;;;;;;24.24;81.29;100551.84;5030922;28;20041;-87
2022/06/28 21:05:25;;;;;;;7.90;2.17;;;;;;;24.24;79.63;100523.88;5028043;28;20046;-82
2022/06/28 21:07:53;;;;;;;7.05;2.63;;;;;;;24.10;81.89;100522.47;5030702;28;20474;-90
2022/06/28 21:10:27;;;;;;;;;;;;;;;24.20;81.75;100518.25;5030976;28;20060;-83
2022/06/28 21:12:55;;;;;;;8.38;2.45;;;;;;;24.02;83.30;100515.94;5031770;28;19925;-82
2022/06/28 21:15:23;;;;;;;9.27;2.60;;;;;;;24.06;83.71;100524.38;5030639;28;20136;-82
2022/06/28 21:17:52;;;;;;;8.95;2.33;;;;;;;23.96;84.41;100519.41;5030336;28;20052;-83
2022/06/28 21:20:19;;;;;;;4.00;1.70;;;;;;;24.05;83.42;100505.19;5029947;28;20058;-82
2022/06/28 21:22:47;;;;;;;6.70;2.47;;;;;;;24.21;82.74;100496.66;5035858;28;20060;-83
2022/06/28 21:25:16;;;;;;;14.73;2.85;;;;;;;24.04;82.29;100498.78;5030986;28;20048;-81
2022/06/28 21:27:46;;;;;;;3.83;2.38;;;;;;;24.01;81.19;100496.75;5022256;28;20113;-81
2022/06/28 21:30:14;;;;;;;6.20;2.13;;;;;;;23.97;81.54;100515.44;5030676;28;20065;-81
2022/06/28 21:32:42;;;;;;;6.93;2.10;;;;;;;23.95;81.07;100535.38;5031138;28;20068;-82
2022/06/28 21:35:10;;;;;;;12.68;2.22;;;;;;;23.78;81.98;100535.84;5030148;28;20045;-80
2022/06/28 21:37:38;;;;;;;5.38;2.35;;;;;;;23.85;82.18;100542.38;5030592;28;20045;-79
2022/06/28 21:40:08;;;;;;;14.55;2.45;;;;;;;23.85;81.40;100538.81;5030339;28;20075;-79
2022/06/28 21:42:36;;;;;;;9.40;2.70;;;;;;;23.81;82.72;100533.16;5030677;28;20403;-81
2022/06/28 21:45:05;;;;;;;6.72;2.10;;;;;;;23.75;81.53;100543.81;5030696;28;20099;-82
2022/06/28 21:47:33;;;;;;;5.85;2.55;;;;;;;23.74;82.72;100547.78;5030772;28;20060;-80
2022/06/28 21:50:01;;;;;;;5.78;2.50;;;;;;;23.69;82.95;100555.66;5030687;28;20057;-81
2022/06/28 21:52:29;;;;;;;9.25;2.38;;;;;;;23.64;85.54;100553.97;5030854;28;20037;-80
2022/06/28 21:54:57;;;;;;;9.50;2.22;;;;;;;23.64;86.83;100556.78;5030606;28;20058;-78
2022/06/28 21:57:26;;;;;;;7.15;2.22;;;;;;;23.66;83.01;100562.78;5030759;28;20053;-78
2022/06/28 21:59:54;;;;;;;11.38;2.67;;;;;;;23.66;82.84;100559.22;5029970;28;20053;-79
2022/06/28 22:02:21;;;;;;;10.45;3.33;;;;;;;23.73;87.79;100571.31;5028550;28;20053;-79
2022/06/28 22:04:49;;;;;;;7.95;2.60;;;;;;;23.95;85.12;100548.53;5020759;28;20049;-78
2022/06/28 22:07:17;;;;;;;3.83;2.38;;;;;;;23.71;86.31;100550.53;5029712;28;20394;-79
2022/06/28 22:09:45;;;;;;;7.22;3.33;;;;;;;23.55;88.41;100525.50;5030382;28;20528;-77
2022/06/28 22:12:13;;;;;;;11.70;3.30;;;;;;;23.34;91.18;100523.91;5030868;28;20413;-79
2022/06/28 22:14:41;;;;;;;12.05;3.17;;;;;;;22.91;95.23;100529.38;5019168;28;20052;-80
2022/06/28 22:17:09;;;;;;;8.75;2.53;;;;;;;22.61;100.00;100532.72;5031033;28;20041;-80
2022/06/28 22:19:37;;;;;;;6.63;2.47;;;;;;;22.44;100.00;100512.44;5031457;28;20496;-81
2022/06/28 22:22:05;;;;;;;7.13;2.30;;;;;;;22.40;100.00;100501.16;5031246;28;20507;-81
2022/06/28 22:24:33;;;;;;;12.32;2.63;;;;;;;22.44;100.00;100484.56;5030412;28;20050;-81
2022/06/28 22:27:01;;;;;;;9.05;3.60;;;;;;;22.42;100.00;100479.34;5028018;28;20495;-81
2022/06/28 22:29:29;;;;;;;9.48;3.75;;;;;;;22.44;100.00;100469.78;5022251;28;20487;-81
2022/06/28 22:31:57;;;;;;;8.05;2.63;;;;;;;22.52;100.00;100468.78;5031154;28;20057;-81
2022/06/28 22:34:25;;;;;;;10.05;3.10;;;;;;;22.59;100.00;100463.41;5031316;28;20494;-81
2022/06/28 22:36:52;;;;;;;7.15;2.75;;;;;;;22.75;97.68;100456.94;5031113;28;20388;-81
2022/06/28 22:39:20;;;;;;;7.32;2.70;;;;;;;22.84;96.12;100456.72;5030864;28;20068;-80
2022/06/28 22:41:48;;;;;;;9.48;2.55;;;;;;;22.88;94.69;100447.22;5031193;28;20056;-80
2022/06/28 22:44:16;;;;;;;8.20;3.17;;;;;;;22.91;95.40;100446.50;5031487;28;20076;-80
2022/06/28 22:46:44;;;;;;;7.28;2.40;;;;;;;22.78;95.71;100442.25;5030592;28;20056;-80
2022/06/28 22:49:13;;;;;;;12.68;2.90;;;;;;;22.82;94.25;100427.22;5031380;28;20377;-80
2022/06/28 22:51:41;;;;;;;9.88;2.72;;;;;;;22.89;92.82;100428.53;5030832;28;20046;-80
2022/06/28 22:54:09;;;;;;;9.35;2.25;;;;;;;22.92;92.23;100425.81;5030671;28;20049;-80
2022/06/28 22:56:37;;;;;;;5.28;2.15;;;;;;;22.83;92.43;100416.88;5030809;28;20054;-80
2022/06/28 22:59:05;;;;;;;7.78;2.28;;;;;;;22.76;92.01;100408.34;5030537;28;20519;-80
2022/06/28 23:01:32;;;;;;;7.05;2.10;;;;;;;22.68;92.95;100401.81;5030879;28;20045;-80
2022/06/28 23:04:00;;;;;;;6.15;2.42;;;;;;;22.59;94.00;100387.28;5030881;28;20050;-80
2022/06/28 23:06:28;;;;;;;6.60;2.70;;;;;;;22.53;96.94;100386.78;5031439;28;20514;-80
2022/06/28 23:08:56;;;;;;;5.30;2.47;;;;;;;22.58;93.42;100383.69;5034475;28;20053;-80
2022/06/28 23:11:24;;;;;;;7.55;2.78;;;;;;;22.82;92.79;100368.63;5034280;28;20053;-80
2022/06/28 23:13:52;;;;;;;2.92;1.85;;;;;;;22.79;89.88;100357.41;5034433;28;20538;-80
2022/06/28 23:16:20;;;;;;;4.65;1.88;;;;;;;22.81;88.84;100349.47;5027553;28;20045;-80
2022/06/28 23:18:49;;;;;;;7.38;1.63;;;;;;;22.81;88.44;100344.69;5033761;28;20061;-79
2022/06/28 23:21:17;;;;;;;4.00;2.38;;;;;;;22.90;87.89;100326.91;5034045;28;20825;-79
2022/06/28 23:23:45;;;;;;;7.32;2.35;;;;;;;22.82;87.75;100321.19;5033977;28;20065;-78
2022/06/28 23:26:12;;;;;;;6.25;2.28;;;;;;;22.83;88.54;100313.66;5033951;28;20049;-79
2022/06/28 23:28:40;;;;;;;7.03;2.20;;;;;;;22.87;87.96;100305.34;5034156;28;20488;-79
2022/06/28 23:31:09;;;;;;;1.65;1.55;;;;;;;22.86;86.21;100295.38;5034304;28;20056;-79
2022/06/28 23:33:37;;;;;;;7.03;2.85;;;;;;;22.70;89.37;100290.69;5033860;28;20050;-79
2022/06/28 23:36:05;;;;;;;5.90;1.90;;;;;;;22.69;87.79;100295.47;5034278;28;20041;-79
2022/06/28 23:38:33;;;;;;;2.53;1.63;;;;;;;22.62;88.00;100283.38;5033987;28;20050;-79
2022/06/28 23:41:01;;;;;;;8.88;2.30;;;;;;;22.73;87.10;100281.56;5034136;28;20404;-78
2022/06/28 23:43:29;;;;;;;6.00;2.05;;;;;;;22.86;85.42;100267.47;5033844;28;20060;-79
2022/06/28 23:45:57;;;;;;;4.80;2.03;;;;;;;22.85;86.28;100280.59;5033801;28;20060;-78
2022/06/28 23:48:25;;;;;;;8.52;2.45;;;;;;;22.93;86.11;100264.81;5033662;28;20399;-79
2022/06/28 23:50:53;;;;;;;5.88;1.88;;;;;;;22.93;87.49;100264.81;5033798;28;20050;-78
2022/06/28 23:53:21;;;;;;;4.95;2.30;;;;;;;22.90;84.97;100260.78;5034094;28;20060;-77
2022/06/28 23:55:49;;;;;;;8.95;1.92;;;;;;;22.91;85.53;100267.13;5033783;28;20053;-77
2022/06/28 23:58:17;;;;;;;4.95;1.90;;;;;;;22.76;86.58;100263.28;5033615;28;20045;-78
